Time;durP1;ratioP1;P1;durP2;ratioP2;P2;SDS_P1;SDS_P2;PMS_P1;PMS_P2;Temp;Humidity;BMP_temperature;BMP_pressure;BME280_temperature;BME280_humidity;BME280_pressure;Samples;Min_cycle;Max_cycle;Signal;HPM_P1;HPM_P2
2021/12/27 00:00:34;;;;;;;7.57;6.27;;;5.50;99.90;;;;;;5014483;28;20182;-70
2021/12/27 00:03:01;;;;;;;6.43;5.73;;;5.40;99.90;;;;;;5020606;28;20222;-69
2021/12/27 00:05:29;;;;;;;7.43;5.57;;;5.40;99.90;;;;;;5028710;28;20410;-68
2021/12/27 00:07:55;;;;;;;6.53;5.90;;;5.50;99.90;;;;;;5027869;28;20406;-70
2021/12/27 00:10:22;;;;;;;6.80;6.10;;;5.50;99.90;;;;;;5015432;28;20821;-70
2021/12/27 00:12:48;;;;;;;6.03;5.43;;;5.50;99.90;;;;;;5012967;28;20418;-70
2021/12/27 00:15:14;;;;;;;6.73;5.57;;;5.40;99.90;;;;;;5012469;28;20429;-70
2021/12/27 00:17:41;;;;;;;6.37;5.70;;;5.40;99.90;;;;;;5013873;28;20441;-70
2021/12/27 00:20:09;;;;;;;7.47;5.73;;;5.40;99.90;;;;;;5013753;28;20472;-70
2021/12/27 00:22:34;;;;;;;6.60;5.90;;;5.50;99.90;;;;;;5013645;28;20437;-71
2021/12/27 00:25:00;;;;;;;6.80;5.00;;;5.50;99.90;;;;;;5013653;28;20414;-70
2021/12/27 00:27:26;;;;;;;6.17;5.57;;;5.50;99.90;;;;;;5013797;28;20172;-69
2021/12/27 00:29:54;;;;;;;5.70;5.10;;;5.60;99.90;;;;;;5013929;28;20265;-71
2021/12/27 00:32:20;;;;;;;6.53;5.93;;;5.60;99.90;;;;;;5013758;28;20172;-70
2021/12/27 00:34:46;;;;;;;7.10;5.47;;;5.50;99.90;;;;;;5013877;28;20508;-72
2021/12/27 00:37:11;;;;;;;5.13;4.63;;;5.60;99.90;;;;;;5014068;28;20201;-70
2021/12/27 00:39:37;;;;;;;7.33;6.00;;;5.70;99.90;;;;;;5013829;28;20190;-70
2021/12/27 00:42:04;;;;;;;7.00;6.40;;;5.80;99.90;;;;;;5012810;28;20186;-70
2021/12/27 00:44:29;;;;;;;6.50;5.87;;;5.90;99.90;;;;;;5013980;28;20258;-70
2021/12/27 00:46:56;;;;;;;6.37;5.77;;;5.90;99.90;;;;;;5013039;28;20414;-71
2021/12/27 00:49:22;;;;;;;7.00;6.00;;;5.90;99.90;;;;;;5013469;28;20199;-70
2021/12/27 00:51:48;;;;;;;6.93;6.33;;;5.70;99.90;;;;;;5016746;28;20896;-70
2021/12/27 00:54:14;;;;;;;6.53;5.93;;;5.80;99.90;;;;;;5017036;28;20270;-70
2021/12/27 00:56:40;;;;;;;8.27;6.40;;;5.70;99.90;;;;;;5017592;28;20179;-71
2021/12/27 00:59:05;;;;;;;6.80;5.93;;;5.70;99.90;;;;;;5017433;28;20411;-70
2021/12/27 01:01:31;;;;;;;7.20;6.50;;;5.60;99.90;;;;;;5016500;28;20211;-70
2021/12/27 01:03:59;;;;;;;6.73;6.03;;;5.60;99.90;;;;;;5017821;28;20195;-70
2021/12/27 01:06:25;;;;;;;8.20;7.00;;;5.60;99.90;;;;;;5017542;28;20554;-72
2021/12/27 01:08:50;;;;;;;7.83;7.10;;;5.70;99.90;;;;;;5015913;28;20410;-71
2021/12/27 01:14:00;;;;;;;7.50;6.67;;;5.40;99.90;;;;;;5015298;28;20192;-70
2021/12/27 01:16:26;;;;;;;8.00;6.20;;;5.30;99.90;;;;;;5015263;28;20460;-71
2021/12/27 01:18:52;;;;;;;7.70;6.63;;;5.30;99.90;;;;;;5016806;28;20491;-70
2021/12/27 01:21:20;;;;;;;6.80;6.10;;;5.20;99.90;;;;;;5016604;28;20186;-70
2021/12/27 01:23:47;;;;;;;7.60;6.90;;;5.10;99.90;;;;;;5015844;28;20440;-70
2021/12/27 01:26:13;;;;;;;7.50;6.20;;;5.10;99.90;;;;;;5014803;28;20410;-71
2021/12/27 01:28:41;;;;;;;7.17;6.47;;;5.10;99.90;;;;;;5015150;28;20414;-71
2021/12/27 01:31:07;;;;;;;7.73;6.40;;;5.10;99.90;;;;;;5015038;28;20458;-71
2021/12/27 01:33:32;;;;;;;8.30;6.10;;;5.10;99.90;;;;;;5014196;28;20445;-70
2021/12/27 01:36:00;;;;;;;6.80;6.17;;;5.10;99.90;;;;;;5015049;28;20747;-70
2021/12/27 01:38:26;;;;;;;7.87;7.07;;;5.20;99.90;;;;;;5014999;28;20175;-70
2021/12/27 01:40:55;;;;;;;7.70;6.90;;;5.20;99.90;;;;;;5014872;28;20456;-70
2021/12/27 01:43:25;;;;;;;7.20;6.50;;;5.20;99.90;;;;;;5014650;28;20473;-70
2021/12/27 01:46:03;;;;;;;7.40;6.60;;;5.10;99.90;;;;;;5015009;28;20407;-69
2021/12/27 01:48:36;;;;;;;7.03;6.23;;;5.00;99.90;;;;;;5014933;28;20421;-69
2021/12/27 01:51:03;;;;;;;6.67;5.97;;;5.10;99.90;;;;;;5014618;28;20453;-70
2021/12/27 01:53:32;;;;;;;6.70;5.80;;;5.10;99.90;;;;;;5014525;28;20446;-70
2021/12/27 01:55:59;;;;;;;8.00;6.83;;;5.10;99.90;;;;;;5013756;28;20887;-70
2021/12/27 01:58:26;;;;;;;7.13;5.67;;;5.10;99.90;;;;;;5014608;28;20418;-70
2021/12/27 02:00:57;;;;;;;7.97;6.17;;;5.00;99.90;;;;;;5014619;28;20430;-70
2021/12/27 02:03:25;;;;;;;6.97;6.30;;;5.10;99.90;;;;;;5013340;28;20423;-70
2021/12/27 02:05:51;;;;;;;6.03;5.53;;;5.00;99.90;;;;;;5012799;28;20465;-70
2021/12/27 02:08:16;;;;;;;6.40;5.80;;;5.10;99.90;;;;;;5014398;28;20446;-70
2021/12/27 02:10:43;;;;;;;8.20;6.10;;;5.10;99.90;;;;;;5014120;28;20203;-71
2021/12/27 02:13:09;;;;;;;6.67;6.00;;;5.10;99.90;;;;;;5014528;28;20262;-71
2021/12/27 02:15:35;;;;;;;6.13;5.53;;;5.20;99.90;;;;;;5013181;28;20472;-70
2021/12/27 02:18:01;;;;;;;6.40;5.80;;;5.20;99.90;;;;;;5014139;28;20410;-70
2021/12/27 02:20:31;;;;;;;5.90;5.20;;;5.20;99.90;;;;;;5014401;28;20242;-70
2021/12/27 02:23:01;;;;;;;5.93;5.27;;;5.30;99.90;;;;;;5014327;28;20469;-69
2021/12/27 02:25:31;;;;;;;5.83;5.23;;;5.30;99.90;;;;;;5014195;28;20442;-70
2021/12/27 02:27:58;;;;;;;6.20;5.60;;;5.30;99.90;;;;;;5014827;28;20509;-70
2021/12/27 02:30:24;;;;;;;6.93;6.23;;;5.40;99.90;;;;;;5014910;28;20465;-69
2021/12/27 02:32:55;;;;;;;6.43;5.77;;;5.40;99.90;;;;;;5014035;28;20441;-70
2021/12/27 02:35:30;;;;;;;7.20;5.47;;;5.40;99.90;;;;;;5014245;28;20460;-70
2021/12/27 02:37:58;;;;;;;5.77;5.20;;;5.40;99.90;;;;;;5014066;28;20448;-70
2021/12/27 02:40:26;;;;;;;5.67;5.10;;;5.40;99.90;;;;;;5014329;28;20426;-69
2021/12/27 02:43:07;;;;;;;6.93;6.07;;;5.40;99.90;;;;;;5014565;28;20427;-69
2021/12/27 02:45:39;;;;;;;6.60;5.90;;;5.50;99.90;;;;;;5014672;28;20414;-70
2021/12/27 02:48:05;;;;;;;6.50;5.90;;;5.50;99.90;;;;;;5014404;28;20399;-70
2021/12/27 02:50:32;;;;;;;5.87;5.30;;;5.50;99.90;;;;;;5013572;28;20469;-70
2021/12/27 02:52:58;;;;;;;6.10;5.50;;;5.40;99.90;;;;;;5013355;28;20862;-70
2021/12/27 02:55:24;;;;;;;6.00;5.40;;;5.40;99.90;;;;;;5013228;28;21131;-71
2021/12/27 02:57:52;;;;;;;6.67;6.07;;;5.30;99.90;;;;;;5013623;28;20435;-70
2021/12/27 03:00:24;;;;;;;6.93;6.27;;;5.20;99.90;;;;;;5013542;28;20182;-71
2021/12/27 03:02:51;;;;;;;8.57;6.57;;;5.30;99.90;;;;;;5013905;28;20447;-69
2021/12/27 03:05:20;;;;;;;7.10;6.37;;;5.30;99.90;;;;;;5013878;28;20489;-69
2021/12/27 03:07:47;;;;;;;6.43;5.80;;;5.30;99.90;;;;;;5013573;28;20410;-70
2021/12/27 03:10:15;;;;;;;7.77;6.80;;;5.40;99.90;;;;;;5014238;28;20961;-69
2021/12/27 03:12:43;;;;;;;7.07;6.40;;;5.40;99.90;;;;;;5016830;28;20419;-69
2021/12/27 03:15:10;;;;;;;6.90;6.20;;;5.50;99.90;;;;;;5013028;28;20501;-69
2021/12/27 03:17:36;;;;;;;8.10;7.17;;;5.40;99.90;;;;;;5012885;28;20558;-69
2021/12/27 03:20:07;;;;;;;7.63;6.63;;;5.40;99.90;;;;;;5013840;28;20789;-71
2021/12/27 03:22:34;;;;;;;6.30;5.70;;;5.40;99.90;;;;;;5013783;28;20473;-70
2021/12/27 03:25:00;;;;;;;6.80;6.10;;;5.40;99.90;;;;;;5013885;28;20429;-70
2021/12/27 03:27:26;;;;;;;7.53;6.63;;;5.40;99.90;;;;;;5013190;28;20418;-69
2021/12/27 03:29:52;;;;;;;7.10;6.40;;;5.40;99.90;;;;;;5012975;28;20462;-69
2021/12/27 03:32:20;;;;;;;7.07;6.37;;;5.40;99.90;;;;;;5013113;28;20533;-69
2021/12/27 03:34:54;;;;;;;7.03;6.33;;;5.40;99.90;;;;;;5013772;28;20442;-71
2021/12/27 03:37:21;;;;;;;7.80;6.83;;;5.40;99.90;;;;;;5012909;28;21055;-70
2021/12/27 03:39:46;;;;;;;7.27;5.70;;;5.40;99.90;;;;;;5013444;28;20409;-69
2021/12/27 03:42:12;;;;;;;7.30;6.60;;;5.40;99.90;;;;;;5013944;28;20464;-68
2021/12/27 03:44:37;;;;;;;8.40;6.47;;;5.50;99.90;;;;;;5014130;28;20203;-69
2021/12/27 03:47:03;;;;;;;7.07;6.07;;;5.50;99.90;;;;;;5013704;28;20582;-69
2021/12/27 03:49:29;;;;;;;6.77;5.80;;;5.50;99.90;;;;;;5012923;28;20211;-69
2021/12/27 03:51:54;;;;;;;6.53;5.63;;;5.60;99.90;;;;;;5012741;28;20168;-70
2021/12/27 03:54:20;;;;;;;7.60;6.17;;;5.50;99.90;;;;;;5012909;28;20237;-70
2021/12/27 03:56:45;;;;;;;8.03;6.23;;;5.60;99.90;;;;;;5013199;28;20183;-70
2021/12/27 03:59:36;;;;;;;6.47;5.77;;;5.60;99.90;;;;;;5013379;28;20195;-70
2021/12/27 04:02:05;;;;;;;6.30;5.70;;;5.50;99.90;;;;;;5013175;28;20179;-69
2021/12/27 04:04:33;;;;;;;6.80;5.90;;;5.70;99.90;;;;;;5013164;28;20430;-69
2021/12/27 04:06:59;;;;;;;5.90;5.30;;;5.60;99.90;;;;;;5013302;28;20418;-69
2021/12/27 04:09:25;;;;;;;6.00;5.40;;;5.70;99.90;;;;;;5013383;28;20406;-69
2021/12/27 04:11:51;;;;;;;8.47;6.97;;;5.70;99.90;;;;;;5013684;28;20488;-69
2021/12/27 04:14:17;;;;;;;6.67;6.00;;;5.70;99.90;;;;;;5013281;28;20205;-72
2021/12/27 04:16:42;;;;;;;6.93;6.20;;;5.70;99.90;;;;;;5013227;28;20193;-70
2021/12/27 04:19:08;;;;;;;6.37;5.77;;;5.70;99.90;;;;;;5012500;28;20171;-70
2021/12/27 04:21:33;;;;;;;5.83;5.23;;;5.70;99.90;;;;;;5013144;28;20179;-69
2021/12/27 04:23:59;;;;;;;6.97;6.27;;;5.80;99.90;;;;;;5012571;28;20226;-70
2021/12/27 04:26:24;;;;;;;6.63;5.70;;;5.80;99.90;;;;;;5015796;28;20633;-70
2021/12/27 04:28:50;;;;;;;8.83;6.60;;;5.80;99.90;;;;;;5017425;28;20183;-70
2021/12/27 04:31:16;;;;;;;6.63;6.00;;;5.70;99.90;;;;;;5017299;28;20202;-70
2021/12/27 04:33:42;;;;;;;6.87;6.17;;;5.70;99.90;;;;;;5017090;28;20450;-69
2021/12/27 04:36:08;;;;;;;7.30;6.60;;;5.70;99.90;;;;;;5016841;28;20235;-71
2021/12/27 04:38:34;;;;;;;6.87;5.70;;;5.70;99.90;;;;;;5016723;28;20970;-69
2021/12/27 04:41:01;;;;;;;6.20;5.60;;;5.70;99.90;;;;;;5016679;28;20190;-69
2021/12/27 04:43:26;;;;;;;7.07;6.37;;;5.70;99.90;;;;;;5016268;28;20433;-69
2021/12/27 04:45:53;;;;;;;6.97;6.07;;;5.70;99.90;;;;;;5016065;28;20425;-70
2021/12/27 04:48:20;;;;;;;8.40;7.50;;;5.70;99.90;;;;;;5016417;28;20182;-69
2021/12/27 04:50:46;;;;;;;7.90;6.17;;;5.70;99.90;;;;;;5016217;28;21005;-70
2021/12/27 04:53:11;;;;;;;7.03;5.73;;;5.70;99.90;;;;;;5016548;28;20470;-69
2021/12/27 04:55:37;;;;;;;6.67;6.10;;;5.80;99.90;;;;;;5016481;28;20199;-71
2021/12/27 04:58:05;;;;;;;7.70;6.70;;;5.80;99.90;;;;;;5016417;28;20175;-71
2021/12/27 05:00:31;;;;;;;7.23;6.43;;;5.90;99.90;;;;;;5016458;28;20446;-70
2021/12/27 05:02:58;;;;;;;6.90;6.20;;;5.90;99.90;;;;;;5023101;28;20438;-69
2021/12/27 05:05:25;;;;;;;6.60;5.90;;;5.80;99.90;;;;;;5029791;28;20421;-69
2021/12/27 05:07:51;;;;;;;7.13;6.00;;;5.90;99.90;;;;;;5031799;28;20434;-70
2021/12/27 05:10:17;;;;;;;6.40;5.80;;;5.90;99.90;;;;;;5018444;28;20462;-71
2021/12/27 05:12:43;;;;;;;6.97;5.80;;;5.90;99.90;;;;;;5018306;28;20422;-70
2021/12/27 05:15:09;;;;;;;6.97;6.10;;;6.00;99.90;;;;;;5017596;28;20207;-69
2021/12/27 05:17:35;;;;;;;6.20;5.60;;;6.00;99.90;;;;;;5016599;28;20403;-70
2021/12/27 05:20:04;;;;;;;7.23;6.63;;;6.00;99.90;;;;;;5020534;28;20543;-70
2021/12/27 05:22:31;;;;;;;7.03;6.30;;;6.00;99.90;;;;;;5018599;28;20180;-70
2021/12/27 05:24:57;;;;;;;6.37;5.67;;;6.00;99.90;;;;;;5016497;28;20417;-71
2021/12/27 05:27:22;;;;;;;7.13;6.43;;;6.00;99.90;;;;;;5015360;28;20414;-69
2021/12/27 05:29:48;;;;;;;7.03;6.33;;;5.90;99.90;;;;;;5016502;28;20203;-71
2021/12/27 05:32:13;;;;;;;8.77;7.00;;;5.90;99.90;;;;;;5017114;28;20171;-69
2021/12/27 05:34:39;;;;;;;6.97;6.33;;;5.90;99.90;;;;;;5015846;28;20234;-71
2021/12/27 05:37:04;;;;;;;6.93;6.20;;;5.90;99.90;;;;;;5017542;28;20179;-71
2021/12/27 05:39:30;;;;;;;9.20;7.10;;;6.00;99.90;;;;;;5017866;28;20235;-70
2021/12/27 05:41:56;;;;;;;7.70;6.90;;;6.10;99.90;;;;;;5017915;28;20176;-69
2021/12/27 05:44:21;;;;;;;6.70;5.80;;;6.10;99.90;;;;;;5016494;28;20203;-70
2021/12/27 05:46:47;;;;;;;6.83;6.03;;;6.20;99.90;;;;;;5016336;28;20179;-70
2021/12/27 05:49:14;;;;;;;8.10;6.87;;;6.20;99.90;;;;;;5014809;28;20175;-69
2021/12/27 05:51:41;;;;;;;7.63;6.83;;;6.20;99.90;;;;;;5015974;28;20570;-70
2021/12/27 05:54:07;;;;;;;7.13;6.37;;;6.20;99.90;;;;;;5015050;28;20430;-70
2021/12/27 05:56:32;;;;;;;7.00;6.30;;;6.20;99.90;;;;;;5014856;28;20506;-71
2021/12/27 05:58:58;;;;;;;7.93;6.97;;;6.20;99.90;;;;;;5015514;28;20255;-70
2021/12/27 06:01:23;;;;;;;8.53;6.83;;;6.20;99.90;;;;;;5014659;28;20184;-70
2021/12/27 06:03:49;;;;;;;6.63;6.00;;;6.10;99.90;;;;;;5014525;28;20203;-70
2021/12/27 06:06:15;;;;;;;7.93;6.40;;;6.10;99.90;;;;;;5015139;28;20182;-70
2021/12/27 06:08:41;;;;;;;8.67;6.50;;;6.00;99.90;;;;;;5015309;28;20168;-70
2021/12/27 06:11:06;;;;;;;9.07;6.77;;;6.00;99.90;;;;;;5015580;28;20532;-70
2021/12/27 06:13:32;;;;;;;8.37;6.80;;;6.00;99.90;;;;;;5015881;28;20579;-69
2021/12/27 06:15:58;;;;;;;8.40;7.20;;;6.00;99.90;;;;;;5014913;28;20703;-70
2021/12/27 06:18:24;;;;;;;10.60;7.50;;;6.10;99.90;;;;;;5015440;28;20199;-69
2021/12/27 06:20:49;;;;;;;10.37;7.80;;;6.10;99.90;;;;;;5016181;28;20176;-69
2021/12/27 06:23:15;;;;;;;7.83;7.03;;;6.10;99.90;;;;;;5016266;28;20435;-70
2021/12/27 06:25:43;;;;;;;7.73;6.33;;;6.20;99.90;;;;;;5015863;28;20913;-70
2021/12/27 06:28:09;;;;;;;9.80;7.37;;;6.20;99.90;;;;;;5016065;28;20225;-70
2021/12/27 06:30:35;;;;;;;8.47;7.40;;;6.20;99.90;;;;;;5015295;28;20454;-69
2021/12/27 06:33:01;;;;;;;10.17;8.00;;;6.10;99.90;;;;;;5014711;28;21024;-70
2021/12/27 06:35:26;;;;;;;8.03;7.23;;;6.10;99.90;;;;;;5036960;23;20245;-68
2021/12/27 06:37:52;;;;;;;9.60;7.77;;;6.10;99.90;;;;;;5021508;28;20728;-68
2021/12/27 06:40:17;;;;;;;8.87;7.87;;;6.10;99.90;;;;;;5013159;28;20237;-68
2021/12/27 06:42:44;;;;;;;11.03;7.67;;;6.10;99.90;;;;;;5013165;28;20266;-68
2021/12/27 06:45:10;;;;;;;7.77;6.77;;;6.20;99.90;;;;;;5006661;28;20196;-68
2021/12/27 06:47:36;;;;;;;8.73;7.17;;;6.20;99.90;;;;;;4993181;28;20403;-68
2021/12/27 06:50:04;;;;;;;9.33;8.33;;;6.20;99.90;;;;;;4992535;28;21008;-68
2021/12/27 06:52:29;;;;;;;10.60;7.80;;;6.20;99.90;;;;;;4993207;28;20172;-68
2021/12/27 06:54:55;;;;;;;9.37;6.90;;;6.20;99.90;;;;;;4993228;28;20493;-68
2021/12/27 06:57:20;;;;;;;8.90;7.57;;;6.30;99.90;;;;;;4992940;28;20172;-68
2021/12/27 06:59:46;;;;;;;10.30;7.90;;;6.40;99.90;;;;;;4991895;28;20522;-68
2021/12/27 07:02:12;;;;;;;7.43;6.60;;;6.30;99.90;;;;;;4992496;28;20637;-69
2021/12/27 07:04:38;;;;;;;8.03;6.50;;;6.40;99.90;;;;;;4993166;28;20414;-69
2021/12/27 07:07:04;;;;;;;9.00;7.90;;;6.30;99.90;;;;;;4992598;28;20891;-68
2021/12/27 07:09:29;;;;;;;8.27;7.47;;;6.30;99.90;;;;;;4993217;28;20632;-68
2021/12/27 07:11:55;;;;;;;9.23;7.50;;;6.30;99.90;;;;;;4992891;28;20459;-68
2021/12/27 07:14:20;;;;;;;11.33;8.37;;;6.40;99.90;;;;;;4993002;28;20259;-68
2021/12/27 07:16:46;;;;;;;9.47;8.47;;;6.40;99.90;;;;;;4992824;28;20188;-69
2021/12/27 07:19:12;;;;;;;9.13;7.97;;;6.40;99.90;;;;;;4993263;28;20247;-68
2021/12/27 07:21:37;;;;;;;8.97;7.43;;;6.50;99.90;;;;;;4993222;28;20556;-68
2021/12/27 07:24:03;;;;;;;8.67;7.73;;;6.50;99.90;;;;;;4993092;28;20218;-69
2021/12/27 07:26:29;;;;;;;10.37;9.27;;;6.50;99.90;;;;;;4993060;28;20307;-68
2021/12/27 07:28:55;;;;;;;11.87;8.47;;;6.50;99.90;;;;;;4993894;28;20447;-68
2021/12/27 07:31:20;;;;;;;8.70;7.43;;;6.50;99.90;;;;;;5000600;28;20669;-68
2021/12/27 07:33:46;;;;;;;7.93;7.13;;;6.50;99.90;;;;;;5000409;28;20180;-68
2021/12/27 07:36:12;;;;;;;7.33;6.63;;;6.60;99.90;;;;;;5003205;28;20231;-69
2021/12/27 07:38:39;;;;;;;8.03;7.10;;;6.70;99.90;;;;;;4998184;28;20164;-68
2021/12/27 07:41:05;;;;;;;8.43;7.30;;;6.70;99.90;;;;;;4992594;28;20414;-68
2021/12/27 07:43:30;;;;;;;8.90;7.17;;;6.70;99.90;;;;;;4992356;28;20407;-68
2021/12/27 07:45:56;;;;;;;7.60;6.80;;;6.80;99.90;;;;;;4992079;28;20278;-68
2021/12/27 07:48:21;;;;;;;7.53;6.40;;;6.80;99.90;;;;;;4992356;28;20308;-68
2021/12/27 07:50:47;;;;;;;8.00;7.10;;;6.80;99.90;;;;;;4992587;28;20294;-68
2021/12/27 07:53:13;;;;;;;8.70;7.00;;;6.70;99.90;;;;;;4992582;28;20255;-68
2021/12/27 07:55:39;;;;;;;7.87;7.07;;;6.70;99.90;;;;;;4991983;28;20428;-70
2021/12/27 07:58:04;;;;;;;7.17;6.30;;;6.60;99.90;;;;;;4992263;28;20311;-68
2021/12/27 08:00:30;;;;;;;9.63;6.73;;;6.60;99.90;;;;;;4993444;28;20414;-68
2021/12/27 08:02:55;;;;;;;8.87;7.00;;;6.50;99.90;;;;;;4996716;28;20176;-68
2021/12/27 08:05:21;;;;;;;7.23;6.53;;;6.60;99.90;;;;;;4996401;28;20287;-68
2021/12/27 08:07:47;;;;;;;8.47;6.80;;;6.60;99.90;;;;;;4996323;28;20176;-71
2021/12/27 08:10:14;;;;;;;8.17;7.37;;;6.60;99.90;;;;;;5013119;28;20769;-69
2021/12/27 08:12:40;;;;;;;7.53;6.83;;;6.60;99.90;;;;;;5036682;28;20586;-69
2021/12/27 08:15:08;;;;;;;8.27;7.07;;;6.60;99.90;;;;;;5034736;28;20591;-70
2021/12/27 08:17:34;;;;;;;8.83;7.33;;;6.60;99.90;;;;;;5036534;28;20529;-67
2021/12/27 08:19:59;;;;;;;7.80;6.40;;;6.70;99.90;;;;;;5035948;28;20432;-68
2021/12/27 08:22:25;;;;;;;9.20;7.93;;;6.70;99.90;;;;;;5036232;28;20911;-68
2021/12/27 08:24:51;;;;;;;9.50;7.67;;;6.60;99.90;;;;;;5036425;28;20257;-67
2021/12/27 08:27:19;;;;;;;9.90;7.90;;;6.70;99.90;;;;;;5034433;28;20183;-68
2021/12/27 08:29:44;;;;;;;10.03;6.47;;;6.70;99.90;;;;;;5035910;28;20615;-69
2021/12/27 08:32:10;;;;;;;8.43;6.57;;;6.80;99.90;;;;;;5037135;28;20963;-68
2021/12/27 08:34:35;;;;;;;7.43;6.73;;;6.90;99.90;;;;;;5037976;28;20174;-68
2021/12/27 08:37:01;;;;;;;7.57;6.70;;;6.90;99.90;;;;;;5040175;28;20178;-69
2021/12/27 08:39:27;;;;;;;8.27;6.50;;;6.90;99.90;;;;;;5042376;28;20167;-68
2021/12/27 08:41:52;;;;;;;9.93;7.07;;;7.00;99.90;;;;;;5044371;28;20213;-67
2021/12/27 08:44:18;;;;;;;8.00;6.50;;;7.00;99.90;;;;;;5050185;28;20171;-68
2021/12/27 08:46:44;;;;;;;7.53;6.67;;;6.90;99.90;;;;;;5048038;28;20191;-68
2021/12/27 08:49:10;;;;;;;8.37;6.30;;;7.00;99.90;;;;;;5042583;28;20250;-68
2021/12/27 08:51:35;;;;;;;8.17;6.97;;;7.10;99.90;;;;;;5038280;28;20256;-68
2021/12/27 08:54:02;;;;;;;7.50;6.80;;;7.00;99.90;;;;;;5041079;28;20406;-69
2021/12/27 08:56:28;;;;;;;7.83;6.70;;;7.00;99.90;;;;;;5038337;28;20724;-69
2021/12/27 08:58:54;;;;;;;8.00;6.77;;;7.10;99.90;;;;;;5044184;28;20401;-69
2021/12/27 09:01:20;;;;;;;7.07;6.37;;;7.10;99.90;;;;;;5045655;28;20179;-69
2021/12/27 09:03:46;;;;;;;8.30;7.00;;;7.20;99.90;;;;;;5044121;28;20437;-69
2021/12/27 09:06:11;;;;;;;7.90;6.77;;;7.20;99.90;;;;;;5043707;28;20437;-69
2021/12/27 09:08:37;;;;;;;6.27;5.20;;;7.30;99.90;;;;;;5038792;28;20186;-69
2021/12/27 09:11:03;;;;;;;7.10;5.63;;;7.40;99.90;;;;;;5037210;28;20207;-69
2021/12/27 09:13:30;;;;;;;7.40;5.93;;;7.30;99.90;;;;;;5037671;28;20184;-70
2021/12/27 09:15:59;;;;;;;8.07;6.03;;;7.30;99.90;;;;;;5036105;28;20506;-69
2021/12/27 09:18:24;;;;;;;7.20;6.50;;;7.30;99.90;;;;;;5035518;28;20442;-69
2021/12/27 09:20:50;;;;;;;8.70;6.20;;;7.30;99.90;;;;;;5035377;28;20409;-69
2021/12/27 09:23:16;;;;;;;7.87;6.10;;;7.30;99.90;;;;;;5035238;28;20179;-68
2021/12/27 09:25:44;;;;;;;7.43;6.23;;;7.20;99.90;;;;;;5033452;28;20202;-67
2021/12/27 09:28:10;;;;;;;6.97;5.90;;;7.20;99.90;;;;;;5033461;28;20262;-70
2021/12/27 09:30:37;;;;;;;7.87;5.90;;;7.20;99.90;;;;;;5034697;28;21092;-68
2021/12/27 09:33:04;;;;;;;6.80;5.60;;;7.20;99.90;;;;;;5034542;28;20250;-68
2021/12/27 09:35:29;;;;;;;7.93;5.07;;;7.30;99.90;;;;;;5034785;28;20454;-68
2021/12/27 09:37:55;;;;;;;5.27;4.73;;;7.20;99.90;;;;;;5034732;28;20447;-68
2021/12/27 09:40:20;;;;;;;5.90;5.07;;;7.20;99.90;;;;;;5034734;28;20179;-69
2021/12/27 09:42:47;;;;;;;7.00;5.07;;;7.30;99.90;;;;;;5034616;28;20179;-67
2021/12/27 09:45:12;;;;;;;5.80;5.10;;;7.20;99.90;;;;;;5033795;28;20205;-68
2021/12/27 09:47:38;;;;;;;6.83;5.37;;;7.20;99.90;;;;;;5034732;28;20813;-68
2021/12/27 09:50:06;;;;;;;6.13;5.20;;;7.20;99.90;;;;;;5018723;28;20238;-68
2021/12/27 09:52:32;;;;;;;8.23;5.50;;;7.20;99.90;;;;;;5013377;28;20234;-68
2021/12/27 09:54:59;;;;;;;7.00;5.50;;;7.30;99.90;;;;;;5015197;28;20493;-67
2021/12/27 09:57:24;;;;;;;6.07;5.43;;;7.30;99.90;;;;;;5014085;28;20414;-69
2021/12/27 09:59:50;;;;;;;6.43;5.43;;;7.40;99.90;;;;;;5014293;28;20417;-69
2021/12/27 10:02:16;;;;;;;6.60;4.80;;;7.50;99.90;;;;;;5014359;28;20262;-68
2021/12/27 10:04:44;;;;;;;5.67;4.93;;;7.50;99.90;;;;;;5014510;28;20170;-68
2021/12/27 10:07:17;;;;;;;5.60;5.03;;;7.60;99.90;;;;;;5013804;28;20181;-69
2021/12/27 10:09:43;;;;;;;5.50;4.47;;;7.60;99.90;;;;;;5013739;28;20469;-69
2021/12/27 10:12:09;;;;;;;6.90;5.00;;;7.60;99.90;;;;;;5013545;28;20841;-69
2021/12/27 10:14:35;;;;;;;5.40;4.73;;;7.60;99.90;;;;;;5013700;28;20180;-69
2021/12/27 10:17:10;;;;;;;6.80;4.73;;;7.70;99.90;;;;;;5013709;28;20414;-68
2021/12/27 10:19:36;;;;;;;5.93;5.10;;;7.80;99.90;;;;;;5033611;28;20182;-69
2021/12/27 10:22:02;;;;;;;5.40;4.90;;;7.90;99.90;;;;;;5033627;28;20409;-68
2021/12/27 10:24:28;;;;;;;5.67;4.67;;;7.90;99.90;;;;;;5014146;28;20420;-68
2021/12/27 10:27:00;;;;;;;5.80;5.20;;;8.00;99.90;;;;;;5013702;28;20406;-70
2021/12/27 10:29:37;;;;;;;5.83;4.27;;;8.10;99.90;;;;;;5013713;28;20464;-68
2021/12/27 10:32:11;;;;;;;5.20;4.70;;;8.20;99.90;;;;;;5014515;28;20391;-68
2021/12/27 10:34:45;;;;;;;5.90;4.80;;;8.30;99.90;;;;;;5013433;28;20764;-69
2021/12/27 10:37:21;;;;;;;4.70;4.30;;;8.30;99.90;;;;;;5013457;28;20394;-68
2021/12/27 10:39:51;;;;;;;5.97;4.97;;;8.40;99.90;;;;;;5014122;28;20942;-68
2021/12/27 10:42:38;;;;;;;5.73;3.97;;;8.50;99.90;;;;;;5013786;28;20903;-69
2021/12/27 10:45:13;;;;;;;4.97;4.40;;;8.60;99.90;;;;;;5013823;28;20423;-68
2021/12/27 10:47:38;;;;;;;5.03;4.30;;;8.50;99.90;;;;;;5013414;28;20441;-70
2021/12/27 10:50:12;;;;;;;5.50;4.30;;;8.60;99.90;;;;;;5013799;28;20867;-68
2021/12/27 10:52:42;;;;;;;4.70;4.30;;;8.70;99.90;;;;;;5013775;28;20164;-67
2021/12/27 10:55:07;;;;;;;4.73;4.17;;;8.80;99.90;;;;;;5012906;28;20511;-68
2021/12/27 10:57:33;;;;;;;7.43;4.83;;;8.80;99.90;;;;;;5013571;28;20922;-69
2021/12/27 11:00:27;;;;;;;4.90;4.50;;;8.80;99.90;;;;;;5013678;28;20176;-69
2021/12/27 11:02:52;;;;;;;4.73;4.20;;;8.70;99.90;;;;;;5014251;28;20611;-67
2021/12/27 11:05:23;;;;;;;4.50;4.10;;;8.70;99.90;;;;;;5013872;28;20488;-67
2021/12/27 11:07:49;;;;;;;5.07;4.60;;;8.70;99.90;;;;;;5012013;28;20226;-67
2021/12/27 11:10:14;;;;;;;4.20;3.80;;;8.60;99.90;;;;;;5013167;28;20788;-69
2021/12/27 11:12:40;;;;;;;4.00;3.67;;;8.60;99.90;;;;;;5013482;28;20210;-69
2021/12/27 11:15:10;;;;;;;3.90;3.60;;;8.70;99.90;;;;;;5013251;28;20206;-68
2021/12/27 11:17:38;;;;;;;4.10;3.80;;;8.60;99.90;;;;;;5015789;28;20175;-67
2021/12/27 11:20:07;;;;;;;3.93;3.63;;;8.60;99.90;;;;;;5033065;28;20411;-67
2021/12/27 11:22:33;;;;;;;4.63;3.97;;;8.70;99.90;;;;;;5032634;28;20421;-68
2021/12/27 11:25:05;;;;;;;3.43;3.13;;;8.70;99.90;;;;;;5032131;28;20449;-68
2021/12/27 11:27:34;;;;;;;4.13;3.73;;;8.70;99.90;;;;;;5032134;28;20174;-68
2021/12/27 11:30:11;;;;;;;4.40;4.00;;;8.70;99.90;;;;;;5032359;28;20611;-68
2021/12/27 11:32:37;;;;;;;3.50;3.20;;;8.70;99.90;;;;;;5032997;28;20975;-68
2021/12/27 11:35:09;;;;;;;5.20;4.70;;;8.70;99.90;;;;;;5032617;28;20451;-68
2021/12/27 11:37:43;;;;;;;4.53;4.13;;;8.80;99.90;;;;;;5032544;28;20168;-68
2021/12/27 11:40:13;;;;;;;4.00;3.60;;;8.80;99.90;;;;;;5032686;28;20419;-67
2021/12/27 11:42:55;;;;;;;4.23;3.83;;;8.90;99.90;;;;;;5032495;28;20793;-67
2021/12/27 11:45:38;;;;;;;4.37;3.97;;;9.00;99.90;;;;;;5032369;28;20433;-67
2021/12/27 11:48:15;;;;;;;4.23;3.83;;;9.00;99.90;;;;;;5032156;28;20502;-68
2021/12/27 11:50:56;;;;;;;4.90;4.03;;;8.90;99.90;;;;;;5032113;28;20495;-68
2021/12/27 11:53:40;;;;;;;4.43;3.97;;;9.00;99.90;;;;;;5015336;28;20420;-68
2021/12/27 11:56:10;;;;;;;4.53;4.13;;;8.90;99.90;;;;;;5012054;28;20466;-68
2021/12/27 11:58:45;;;;;;;4.53;4.17;;;8.90;99.90;;;;;;5012060;28;20423;-68
2021/12/27 12:01:19;;;;;;;5.40;4.63;;;8.90;99.90;;;;;;5012674;28;20448;-67
2021/12/27 12:03:46;;;;;;;5.77;4.00;;;9.00;99.90;;;;;;5012900;28;20767;-67
2021/12/27 12:06:33;;;;;;;4.00;3.63;;;8.90;99.90;;;;;;5024831;28;20448;-68
2021/12/27 12:09:01;;;;;;;4.47;3.73;;;8.90;99.90;;;;;;4995842;28;20423;-67
2021/12/27 12:11:32;;;;;;;4.30;3.90;;;9.00;99.90;;;;;;5012157;28;20931;-68
2021/12/27 12:14:17;;;;;;;4.27;3.87;;;9.10;99.90;;;;;;5006553;28;20836;-68
2021/12/27 12:16:47;;;;;;;3.93;3.63;;;9.10;99.90;;;;;;5024504;28;20486;-68
2021/12/27 12:19:13;;;;;;;3.80;3.50;;;9.00;99.90;;;;;;5021317;28;20468;-68
2021/12/27 12:21:42;;;;;;;4.33;3.90;;;9.00;99.90;;;;;;5028315;28;20453;-68
2021/12/27 12:24:11;;;;;;;4.20;3.80;;;9.00;99.90;;;;;;5020606;28;20220;-69
2021/12/27 12:26:55;;;;;;;4.73;4.33;;;9.00;99.90;;;;;;5021882;28;20467;-68
2021/12/27 12:29:22;;;;;;;3.73;3.43;;;9.00;99.90;;;;;;5001608;28;20983;-68
2021/12/27 12:31:55;;;;;;;4.30;3.90;;;8.90;99.90;;;;;;5010768;28;20484;-67
2021/12/27 12:34:21;;;;;;;4.13;3.73;;;9.00;99.90;;;;;;5010268;28;20820;-70
2021/12/27 12:37:07;;;;;;;4.43;4.07;;;9.00;99.90;;;;;;5010313;28;20456;-68
2021/12/27 12:39:52;;;;;;;3.97;3.53;;;9.00;99.90;;;;;;5011136;28;20519;-68
2021/12/27 12:42:22;;;;;;;3.93;3.63;;;9.00;99.90;;;;;;5011394;28;20417;-69
2021/12/27 12:45:00;;;;;;;5.13;4.27;;;9.10;99.90;;;;;;5011374;28;20446;-69
2021/12/27 12:47:36;;;;;;;3.50;3.13;;;9.10;99.90;;;;;;5013362;28;21069;-69
2021/12/27 12:50:16;;;;;;;4.20;3.90;;;9.10;99.90;;;;;;5014564;28;20477;-69
2021/12/27 12:52:49;;;;;;;4.00;3.60;;;9.10;99.90;;;;;;5014883;28;20417;-69
2021/12/27 12:55:14;;;;;;;4.13;3.83;;;9.10;99.90;;;;;;5015006;28;20438;-68
2021/12/27 12:57:47;;;;;;;4.17;3.77;;;9.00;99.90;;;;;;5014520;28;20426;-69
2021/12/27 13:00:12;;;;;;;4.10;3.70;;;9.00;99.90;;;;;;5014695;28;20569;-68
2021/12/27 13:02:39;;;;;;;4.30;3.93;;;9.00;99.90;;;;;;5014816;28;20469;-69